메인 페이지
METAR-TAF:

METAR-TAF

공항 :

킨샤사, 콩고

위도: 04-23S, 경도: 015-26E, 고도: 309m

현재 날씨관측

예보는 29분 전, 13:00시(UTC)에 발표되었습니다.
6kt
온도 26°C
습도 79%
기압 1012 hPa
시정: 6000m
고도 1400ft 상공 구름 보통
고도 1600ft 상공 구름 많음

METAR: FZAA 291300Z 28006KT 6000 SCT014 BKN016 26/22 Q1012 NOSIG

시각: 14:29 (13:29 UTC)

예보

예보는 2 시간 29분 전, 11:00시(UTC)에 발표되었습니다.
예보 대상 시간: 29일 12시부터 30일 18시까지 (UTC)
남서6kt
시정: 6000m
고도 2000ft 상공 구름 많음
전환 중
29일 14시부터 29일 16시까지 (UTC)
고도 1800ft 상공 구름 보통
고도 3000ft 상공 구름 조금, 적란운.
일시적
29일 17시부터 29일 21시까지 (UTC)
뇌우
전환 중
29일 23시부터 30일 02시까지 (UTC)
시정: 4000m
고도 1400ft 상공 구름 조금
박무
전환 중
30일 07시부터 30일 09시까지 (UTC)
시정: 6000m
고도 1800ft 상공 구름 보통

TAF: FZAA 291100Z 2912/3018 23006KT 6000 BKN020 BECMG 2914/2916 SCT018 FEW030CB TEMPO 2917/2921 TS BECMG 2923/3002 4000 BR FEW014 BECMG 3007/3009 6000 NSW SCT018

4,000개 이상의 공항 관측 자료 및 예보 (METAR 및 TAF 보고).

지도상에서 검색 가능한 기상관측소가 노란 점과 빨간 점으로 표시되어 있습니다.

기상관측소 명을 보려면 표시 위로 마우스를 이동하세요.

날씨 관측과 예보를 보려면 클릭하세요.

지도 변경 : 확대하려면 엑스 표시가 있는 녹색 버튼, 축소하려면 빼기 표시가 있는 녹색 버튼, 다음 페이지의 지도를 보려면 녹색 화살표를 클릭하세요.


METAR-TAF: